This is the latest recevied weather packets stored in our database for station/object YBBN. If no packets are shown the sender has not sent any weather packets the latest 10 day(s).
| Time | Temp. | Humidity | Pressure | Rain* | Wind** | Luminosity | Snow |
|---|---|---|---|---|---|---|---|
| 1787439231 | 16.67° C | 77% | 1024 hPa | - | - | - | - |
| 1787438626 | 16.67° C | 77% | 1024 hPa | - | - | - | - |
| 1787438028 | 15° C | 87% | 1024 hPa | - | - | - | - |
| 1787437427 | 15° C | 87% | 1024 hPa | - | - | - | - |
| 1787436826 | 15° C | 87% | 1024 hPa | - | - | - | - |
| 1787436229 | 13.89° C | 87% | 1024 hPa | - | - | - | - |
| 1787435628 | 13.89° C | 87% | 1024 hPa | - | - | - | - |
| 1787435029 | 13.89° C | 87% | 1024 hPa | - | - | - | - |
| 1787434428 | 11.67° C | 100% | 1024 hPa | - | - | - | - |
| 1787433828 | 11.67° C | 100% | 1024 hPa | - | - | - | - |
| 1787433226 | 11.67° C | 100% | 1024 hPa | - | - | - | - |
| 1787432629 | 10.56° C | 100% | 1023 hPa | - | - | - | - |
| 1787432027 | 10.56° C | 100% | 1023 hPa | - | - | - | - |
| 1787431427 | 10.56° C | 100% | 1023 hPa | - | - | - | - |
| 1787430830 | 10.56° C | 93% | 1023 hPa | - | - | - | - |
| 1787430225 | 10.56° C | 93% | 1023 hPa | - | - | - | - |
| 1787429625 | 10.56° C | 93% | 1023 hPa | - | - | - | - |
| 1787429029 | 10° C | 99% | 1023 hPa | - | - | - | - |
| 1787428428 | 10° C | 99% | 1023 hPa | - | - | - | - |
| 1787427827 | 10° C | 99% | 1023 hPa | - | - | - | - |
| 1787427229 | 10.56° C | 100% | 1022 hPa | - | - | - | - |
| 1787426643 | 10.56° C | 100% | 1022 hPa | - | - | - | - |
| 1787426030 | 10.56° C | 100% | 1022 hPa | - | - | - | - |
| 1787425435 | 10.56° C | 100% | 1022 hPa | - | - | - | - |
| 1787424834 | 10.56° C | 100% | 1022 hPa | - | - | - | - |
* Rain since midnight (hover to see other rain measurements)
** Current wind speed in m/s (hover to see current wind gust speed)